Time;durP1;ratioP1;P1;durP2;ratioP2;P2;SDS_P1;SDS_P2;PMS_P1;PMS_P2;Temp;Humidity;BMP_temperature;BMP_pressure;BME280_temperature;BME280_humidity;BME280_pressure;Samples;Min_cycle;Max_cycle;Signal;HPM_P1;HPM_P2
2022/05/22 00:02:09;;;;;;;7.15;4.70;;;;;;;12.75;84.01;101661.16;4971067;28;20014;-75
2022/05/22 00:04:36;;;;;;;11.75;4.35;;;;;;;12.81;83.60;101660.59;4975607;28;20117;-75
2022/05/22 00:07:01;;;;;;;7.20;4.68;;;;;;;12.83;83.70;101654.25;4975826;28;20030;-75
2022/05/22 00:09:30;;;;;;;9.63;4.13;;;;;;;12.87;83.14;101649.56;4975097;28;20041;-76
2022/05/22 00:11:56;;;;;;;9.68;4.50;;;;;;;12.89;82.90;101662.44;4972156;28;20041;-75
2022/05/22 00:14:21;;;;;;;9.32;4.45;;;;;;;12.88;82.87;101663.41;4971536;28;20434;-75
2022/05/22 00:16:47;;;;;;;9.90;4.03;;;;;;;12.86;82.87;101658.34;4973054;28;20219;-75
2022/05/22 00:19:22;;;;;;;11.95;4.25;;;;;;;12.87;82.75;101659.19;4976948;28;20576;-76
2022/05/22 00:21:48;;;;;;;13.20;5.00;;;;;;;12.87;82.79;101639.16;4974611;28;20038;-75
2022/05/22 00:24:23;;;;;;;12.13;4.70;;;;;;;12.85;82.83;101631.50;4962814;28;20030;-75
2022/05/22 00:26:49;;;;;;;7.10;4.65;;;;;;;12.75;83.13;101624.72;4972962;28;20069;-76
2022/05/22 00:29:16;;;;;;;10.10;4.50;;;;;;;12.66;83.10;101629.06;4974959;28;20181;-76
2022/05/22 00:31:44;;;;;;;9.95;4.68;;;;;;;12.61;83.25;101613.09;4972592;28;20041;-75
2022/05/22 00:34:11;;;;;;;13.00;4.88;;;;;;;12.53;83.37;101621.63;4973913;28;20514;-75
2022/05/22 00:36:36;;;;;;;10.80;5.05;;;;;;;12.49;83.50;101622.06;4984018;28;20053;-75
2022/05/22 00:39:03;;;;;;;11.70;5.43;;;;;;;12.47;83.80;101627.44;4978218;28;20038;-75
2022/05/22 00:41:30;;;;;;;7.72;4.70;;;;;;;12.47;83.66;101617.03;4981053;28;20030;-75
2022/05/22 00:43:57;;;;;;;10.70;5.40;;;;;;;12.48;83.72;101623.03;4987510;28;20097;-75
2022/05/22 00:46:24;;;;;;;9.15;5.07;;;;;;;12.45;83.49;101624.97;4980505;28;20058;-75
2022/05/22 00:48:54;;;;;;;10.68;4.43;;;;;;;12.46;83.80;101628.38;4977039;28;20380;-75
2022/05/22 00:51:28;;;;;;;14.25;6.07;;;;;;;12.45;83.55;101637.16;4964351;28;20089;-75
2022/05/22 00:54:02;;;;;;;11.85;5.25;;;;;;;12.44;83.72;101628.53;4988787;28;20251;-76
2022/05/22 00:56:35;;;;;;;11.63;5.75;;;;;;;12.43;83.71;101631.28;4974816;28;20041;-75
2022/05/22 00:59:04;;;;;;;10.82;5.95;;;;;;;12.41;83.50;101623.66;4980891;28;20034;-75
2022/05/22 01:01:30;;;;;;;8.98;5.40;;;;;;;12.39;83.91;101627.34;4986401;28;21259;-75
2022/05/22 01:03:56;;;;;;;8.77;5.90;;;;;;;12.39;83.90;101620.34;4980122;28;20042;-75
2022/05/22 01:06:24;;;;;;;12.00;5.95;;;;;;;12.39;83.67;101635.13;4980521;28;20031;-75
2022/05/22 01:08:51;;;;;;;12.20;6.05;;;;;;;12.37;83.63;101632.69;4977511;28;20026;-75
2022/05/22 01:11:18;;;;;;;10.48;6.50;;;;;;;12.34;83.72;101622.59;4973258;28;20034;-76
2022/05/22 01:13:55;;;;;;;9.95;6.00;;;;;;;12.31;83.78;101624.66;4982707;28;20034;-75
2022/05/22 01:16:21;;;;;;;10.32;5.57;;;;;;;12.25;83.94;101616.47;4992572;28;20364;-75
2022/05/22 01:18:50;;;;;;;11.68;5.57;;;;;;;12.23;83.97;101617.59;4976062;28;20034;-76
2022/05/22 01:21:22;;;;;;;12.82;5.32;;;;;;;12.20;84.13;101620.50;4978212;28;20407;-75
2022/05/22 01:23:48;;;;;;;8.83;5.13;;;;;;;12.17;84.31;101629.41;4993891;28;20034;-75
2022/05/22 01:26:22;;;;;;;10.27;5.75;;;;;;;12.15;84.21;101622.69;4977923;28;20426;-75
2022/05/22 01:29:01;;;;;;;15.80;6.03;;;;;;;12.15;84.38;101625.31;4978489;28;20030;-75
2022/05/22 01:31:27;;;;;;;15.77;6.47;;;;;;;12.13;84.32;101622.88;4995250;28;20033;-75
2022/05/22 01:33:53;;;;;;;9.13;5.68;;;;;;;12.14;84.61;101610.69;4994141;28;20029;-75
2022/05/22 01:36:18;;;;;;;13.02;5.78;;;;;;;12.13;84.72;101620.28;4977792;28;20034;-75
2022/05/22 01:38:50;;;;;;;10.32;5.72;;;;;;;12.11;84.80;101624.81;4981936;28;20027;-75
2022/05/22 01:41:17;;;;;;;11.15;5.70;;;;;;;12.08;85.24;101625.09;4979174;28;20037;-75
2022/05/22 01:43:43;;;;;;;10.80;5.65;;;;;;;11.97;86.04;101618.28;4964309;28;20100;-75
2022/05/22 01:46:16;;;;;;;;;;;;;;;11.94;86.28;101615.16;4981340;28;20113;-75
2022/05/22 01:48:51;;;;;;;9.50;6.30;;;;;;;11.88;86.38;101612.16;4989271;28;19918;-75
2022/05/22 01:51:20;;;;;;;11.77;6.40;;;;;;;11.87;86.63;101607.91;4992363;28;20026;-75
2022/05/22 01:53:46;;;;;;;11.43;6.00;;;;;;;11.85;86.59;101607.25;4960868;28;20030;-75
2022/05/22 01:56:13;;;;;;;10.95;5.65;;;;;;;11.85;86.53;101606.44;4962221;28;20435;-75
2022/05/22 01:58:40;;;;;;;11.80;6.18;;;;;;;11.85;86.54;101607.25;4992209;28;20527;-75
2022/05/22 02:01:08;;;;;;;11.23;5.85;;;;;;;11.82;86.60;101601.53;4977217;28;20033;-75
2022/05/22 02:03:34;;;;;;;8.77;5.80;;;;;;;11.81;86.83;101608.50;4992058;28;20427;-75
2022/05/22 02:05:59;;;;;;;10.35;5.93;;;;;;;11.80;86.50;101606.03;4974627;28;20031;-74
2022/05/22 02:08:26;;;;;;;10.85;5.85;;;;;;;11.79;86.44;101599.19;4973402;28;20023;-75
2022/05/22 02:11:01;;;;;;;13.27;5.35;;;;;;;11.78;86.35;101600.19;4974559;28;20050;-75
2022/05/22 02:13:31;;;;;;;8.57;5.20;;;;;;;11.77;86.45;101590.72;4991256;28;20046;-75
2022/05/22 02:15:56;;;;;;;9.13;5.65;;;;;;;11.71;86.04;101578.34;4977886;28;20031;-76
2022/05/22 02:18:22;;;;;;;11.85;5.93;;;;;;;11.65;86.37;101574.53;4971882;28;20026;-74
2022/05/22 02:20:50;;;;;;;11.07;5.93;;;;;;;11.54;86.38;101572.94;4991249;28;20611;-75
2022/05/22 02:23:17;;;;;;;7.90;5.88;;;;;;;11.45;86.67;101576.38;4980432;28;20403;-75
2022/05/22 02:25:45;;;;;;;8.70;5.43;;;;;;;11.42;86.70;101574.09;4973259;28;20031;-75
2022/05/22 02:28:14;;;;;;;9.38;5.43;;;;;;;11.39;86.91;101569.16;4980267;28;20038;-74
2022/05/22 02:30:43;;;;;;;10.40;5.40;;;;;;;11.35;87.02;101562.63;4994110;28;20030;-75
2022/05/22 02:33:10;;;;;;;9.80;5.97;;;;;;;11.33;86.94;101565.34;4976048;28;20134;-75
2022/05/22 02:35:45;;;;;;;12.95;5.50;;;;;;;11.33;87.44;101559.34;4994531;28;20078;-75
2022/05/22 02:38:18;;;;;;;11.88;5.40;;;;;;;11.31;87.56;101562.09;4995859;28;20041;-75
2022/05/22 02:40:48;;;;;;;14.38;6.43;;;;;;;11.32;87.41;101555.94;4990972;28;20039;-75
2022/05/22 02:43:14;;;;;;;10.48;5.15;;;;;;;11.31;87.09;101554.31;4967577;28;20037;-75
2022/05/22 02:45:42;;;;;;;11.35;6.38;;;;;;;11.29;87.19;101564.81;4981009;28;20049;-75
2022/05/22 02:48:14;;;;;;;11.60;5.70;;;;;;;11.30;87.22;101561.28;4981145;28;20034;-74
2022/05/22 02:50:52;;;;;;;10.23;5.50;;;;;;;11.28;87.08;101562.38;4978472;28;20026;-75
2022/05/22 02:53:19;;;;;;;14.40;6.38;;;;;;;11.26;87.18;101559.09;4991896;28;20038;-75
2022/05/22 02:56:10;;;;;;;12.65;6.00;;;;;;;11.24;87.11;101559.22;4978206;28;20243;-75
2022/05/22 02:58:56;;;;;;;;;;;;;;;11.23;87.58;101554.19;4981480;28;20042;-75
2022/05/22 03:01:21;;;;;;;15.27;6.15;;;;;;;11.22;87.66;101550.75;4978787;28;20001;-74
2022/05/22 03:03:48;;;;;;;11.63;6.07;;;;;;;11.20;87.45;101544.09;4982622;28;20034;-75
2022/05/22 03:08:58;;;;;;;9.05;5.10;;;;;;;11.13;88.32;101537.81;4989103;28;20546;-75
2022/05/22 03:11:24;;;;;;;11.93;5.78;;;;;;;11.08;88.41;101535.66;4982943;28;20038;-75
2022/05/22 03:13:50;;;;;;;8.85;5.40;;;;;;;11.07;88.80;101545.22;4977119;28;20446;-75
2022/05/22 03:16:16;;;;;;;8.50;5.35;;;;;;;11.06;88.87;101538.41;4980229;28;20058;-75
2022/05/22 03:19:08;;;;;;;11.07;5.35;;;;;;;11.08;89.16;101540.84;4970288;28;20034;-75
2022/05/22 03:21:33;;;;;;;9.48;5.40;;;;;;;11.08;89.11;101538.25;4976236;28;20034;-75
2022/05/22 03:24:01;;;;;;;10.68;5.93;;;;;;;11.07;88.97;101531.41;4975531;28;20506;-75
2022/05/22 03:26:27;;;;;;;11.60;5.95;;;;;;;11.08;88.87;101528.69;4975963;28;20061;-75
2022/05/22 03:28:53;;;;;;;10.00;5.60;;;;;;;11.09;88.66;101529.50;4972767;28;20114;-75
2022/05/22 03:31:20;;;;;;;10.90;5.78;;;;;;;11.07;88.74;101527.03;4961851;28;20019;-75
2022/05/22 03:33:47;;;;;;;8.75;5.32;;;;;;;11.02;88.43;101518.88;4984355;28;20756;-74
2022/05/22 03:36:12;;;;;;;8.68;5.13;;;;;;;10.97;88.50;101523.66;4979595;28;20087;-75
2022/05/22 03:38:38;;;;;;;9.93;5.38;;;;;;;10.95;88.76;101524.78;4979155;28;20039;-75
2022/05/22 03:41:05;;;;;;;9.88;5.85;;;;;;;10.94;88.63;101512.75;4975614;28;20026;-75
2022/05/22 03:43:36;;;;;;;9.13;5.45;;;;;;;10.93;88.16;101521.50;4982965;28;20302;-75
2022/05/22 03:46:02;;;;;;;11.15;4.70;;;;;;;10.88;88.49;101516.72;4959849;28;20026;-75
2022/05/22 03:48:29;;;;;;;10.73;5.57;;;;;;;10.87;88.10;101517.69;4980034;28;20026;-75
2022/05/22 03:50:54;;;;;;;8.70;5.65;;;;;;;10.86;88.24;101526.44;4992881;28;20026;-75
2022/05/22 03:53:23;;;;;;;13.02;6.30;;;;;;;10.86;88.05;101523.84;4977230;28;20066;-75
2022/05/22 03:55:50;;;;;;;11.23;6.97;;;;;;;10.86;88.26;101516.06;4980528;28;20499;-75
2022/05/22 03:58:18;;;;;;;10.63;5.80;;;;;;;10.82;88.27;101515.50;4975628;28;20046;-75
2022/05/22 04:00:45;;;;;;;9.32;5.22;;;;;;;10.79;89.01;101513.19;4980286;28;20090;-74
2022/05/22 04:03:11;;;;;;;13.18;6.03;;;;;;;10.78;89.29;101513.34;4977449;28;20030;-75
2022/05/22 04:05:36;;;;;;;12.48;5.70;;;;;;;10.77;89.39;101512.50;4976878;28;20045;-75
2022/05/22 04:08:03;;;;;;;15.55;7.35;;;;;;;10.78;89.36;101510.75;4976881;28;20035;-74
2022/05/22 04:10:47;;;;;;;9.43;5.88;;;;;;;10.79;89.34;101510.59;4976818;28;21348;-75
2022/05/22 04:13:13;;;;;;;9.27;5.57;;;;;;;10.79;89.26;101502.81;4973449;28;20537;-75
2022/05/22 04:15:39;;;;;;;12.23;5.60;;;;;;;10.81;89.23;101511.28;4982564;28;20097;-75
2022/05/22 04:18:05;;;;;;;9.93;5.45;;;;;;;10.82;89.34;101509.50;4976288;28;20030;-75
2022/05/22 04:20:32;;;;;;;8.30;5.63;;;;;;;10.81;89.70;101497.47;4962464;28;20110;-75
2022/05/22 04:26:04;;;;;;;15.95;6.75;;;;;;;10.80;90.05;101506.25;4980721;28;20080;-75
2022/05/22 04:28:30;;;;;;;11.00;6.07;;;;;;;10.79;90.18;101502.00;4990023;28;20035;-75
2022/05/22 04:31:06;;;;;;;15.85;6.55;;;;;;;10.76;90.65;101508.28;4973381;28;20030;-75
2022/05/22 04:33:37;;;;;;;13.27;6.97;;;;;;;10.75;90.59;101505.84;4976839;28;20116;-75
2022/05/22 04:36:04;;;;;;;19.55;7.30;;;;;;;10.75;90.71;101503.25;4987359;28;20569;-74
2022/05/22 04:38:30;;;;;;;9.07;5.68;;;;;;;10.77;91.03;101507.31;4980412;28;20037;-75
2022/05/22 04:40:59;;;;;;;15.60;6.93;;;;;;;10.79;91.26;101512.38;4973496;28;20022;-75
2022/05/22 04:43:26;;;;;;;11.20;6.05;;;;;;;10.81;91.22;101507.84;4979634;28;20034;-75
2022/05/22 04:45:53;;;;;;;10.27;6.97;;;;;;;10.85;91.28;101512.66;4973927;28;20026;-75
2022/05/22 04:48:24;;;;;;;10.63;6.53;;;;;;;10.86;91.44;101506.47;4963597;28;20038;-75
2022/05/22 04:50:56;;;;;;;8.77;6.35;;;;;;;10.88;91.45;101516.72;4992100;28;20085;-75
2022/05/22 04:53:30;;;;;;;13.43;6.82;;;;;;;10.93;91.73;101513.72;4976719;28;20098;-74
2022/05/22 04:56:07;;;;;;;14.52;5.85;;;;;;;10.97;91.63;101515.06;4970593;28;20591;-74
2022/05/22 04:58:39;;;;;;;10.32;5.63;;;;;;;11.01;91.82;101517.22;4978873;28;20034;-75
2022/05/22 05:01:10;;;;;;;10.95;7.47;;;;;;;11.06;92.25;101522.00;4977624;28;20026;-75
2022/05/22 05:03:44;;;;;;;12.10;6.13;;;;;;;11.10;92.47;101518.16;4977459;28;20088;-75
2022/05/22 05:06:10;;;;;;;12.57;6.90;;;;;;;11.15;92.68;101515.13;4975010;28;20026;-75
2022/05/22 05:08:38;;;;;;;13.77;6.30;;;;;;;11.20;92.88;101513.75;4991391;28;20034;-75
2022/05/22 05:11:12;;;;;;;13.00;6.25;;;;;;;11.25;93.07;101514.16;4977104;28;20029;-75
2022/05/22 05:13:46;;;;;;;11.82;6.78;;;;;;;11.33;92.98;101502.22;4974663;28;20025;-75
2022/05/22 05:16:14;;;;;;;15.73;6.28;;;;;;;11.39;92.54;101494.66;4980299;28;21103;-75
2022/05/22 05:18:45;;;;;;;9.20;6.10;;;;;;;11.44;92.25;101492.47;4978612;28;20507;-75
2022/05/22 05:21:13;;;;;;;12.48;7.85;;;;;;;11.49;91.97;101484.25;4981079;28;20030;-75
2022/05/22 05:23:39;;;;;;;13.95;6.85;;;;;;;11.55;92.11;101485.47;4971935;28;20498;-75
2022/05/22 05:26:15;;;;;;;13.18;6.13;;;;;;;11.66;92.02;101498.25;4964802;28;20092;-75
2022/05/22 05:28:41;;;;;;;11.13;5.85;;;;;;;11.80;91.98;101504.72;4991700;28;20034;-75
2022/05/22 05:31:08;;;;;;;12.65;7.10;;;;;;;11.91;92.26;101498.53;4992217;28;20146;-75
2022/05/22 05:33:37;;;;;;;12.20;6.80;;;;;;;12.03;92.39;101495.53;4981003;28;20766;-74
2022/05/22 05:36:28;;;;;;;19.45;7.60;;;;;;;12.17;92.32;101502.00;4966450;28;20067;-75
2022/05/22 05:39:07;;;;;;;11.57;6.72;;;;;;;12.30;92.09;101498.19;4978425;28;20054;-74
2022/05/22 05:41:47;;;;;;;13.48;8.23;;;;;;;12.49;90.40;101499.81;4983578;28;20026;-75
2022/05/22 05:44:15;;;;;;;13.15;7.30;;;;;;;12.62;89.87;101495.03;4966995;28;20073;-75
2022/05/22 05:46:49;;;;;;;17.10;9.38;;;;;;;12.73;89.56;101491.34;4965779;28;20049;-75
2022/05/22 05:49:15;;;;;;;18.42;10.27;;;;;;;12.92;87.40;101491.16;4977149;28;20030;-75
2022/05/22 05:51:43;;;;;;;20.92;9.70;;;;;;;13.08;85.08;101490.41;4983543;28;20030;-75
2022/05/22 05:54:09;;;;;;;17.60;9.77;;;;;;;13.22;83.53;101494.22;4959385;28;20041;-75
2022/05/22 05:56:53;;;;;;;12.05;7.68;;;;;;;13.28;83.98;101495.38;4980746;28;20125;-75
2022/05/22 05:59:27;;;;;;;22.23;7.95;;;;;;;13.54;84.06;101498.78;4979389;28;20465;-75
2022/05/22 06:02:14;;;;;;;15.02;7.50;;;;;;;13.75;83.61;101493.13;4973750;28;20059;-75
2022/05/22 06:04:40;;;;;;;16.52;8.23;;;;;;;13.97;81.76;101490.88;4992018;28;20122;-75
2022/05/22 06:07:07;;;;;;;19.98;8.93;;;;;;;14.04;80.85;101491.88;4977825;28;20057;-75
2022/05/22 06:09:33;;;;;;;21.42;8.05;;;;;;;14.11;79.97;101481.59;4990005;28;20384;-75
2022/05/22 06:12:18;;;;;;;15.35;8.23;;;;;;;13.99;80.03;101484.53;4988160;28;20042;-75
2022/05/22 06:15:07;;;;;;;16.33;8.30;;;;;;;13.94;81.23;101488.59;4970745;28;21658;-74
2022/05/22 06:17:38;;;;;;;16.65;7.53;;;;;;;14.16;81.59;101490.53;4983231;28;20046;-75
2022/05/22 06:20:08;;;;;;;23.25;9.05;;;;;;;14.82;78.21;101487.09;4997310;28;20027;-75
2022/05/22 06:22:46;;;;;;;14.82;7.82;;;;;;;15.34;75.65;101489.19;4981957;28;20041;-75
2022/05/22 06:25:30;;;;;;;16.88;7.93;;;;;;;15.53;73.91;101485.34;4982755;28;20077;-75
2022/05/22 06:28:15;;;;;;;19.75;7.95;;;;;;;16.04;73.57;101484.88;4985233;28;20162;-76
2022/05/22 06:31:14;;;;;;;17.50;9.60;;;;;;;16.36;70.89;101486.41;4952970;28;20027;-76
2022/05/22 06:33:50;;;;;;;21.48;8.30;;;;;;;16.48;68.43;101485.00;4992470;28;20109;-75
2022/05/22 06:36:30;;;;;;;17.88;8.45;;;;;;;16.76;68.94;101478.34;4964787;28;20058;-76
2022/05/22 06:42:20;;;;;;;18.85;7.68;;;;;;;16.45;71.06;101481.94;4971774;28;20451;-75
2022/05/22 06:45:19;;;;;;;17.88;8.07;;;;;;;16.81;68.95;101476.78;4981420;28;20038;-75
2022/05/22 06:48:04;;;;;;;;;;;;;;;17.11;67.46;101476.81;4982875;28;20088;-75
2022/05/22 06:50:53;;;;;;;17.65;8.00;;;;;;;17.28;66.94;101478.22;4979176;28;19969;-75
2022/05/22 06:53:27;;;;;;;17.90;7.53;;;;;;;17.59;65.68;101474.53;4974827;28;20042;-76
2022/05/22 06:56:11;;;;;;;17.38;7.57;;;;;;;17.65;65.25;101473.81;4978237;28;20455;-75
2022/05/22 06:58:55;;;;;;;19.05;7.30;;;;;;;17.88;63.82;101467.59;4981439;28;20410;-75
2022/05/22 07:01:39;;;;;;;14.75;6.85;;;;;;;18.25;62.81;101474.38;4983464;28;20050;-75
2022/05/22 07:04:23;;;;;;;16.70;7.35;;;;;;;18.78;62.41;101465.19;4981752;28;20049;-75
2022/05/22 07:07:21;;;;;;;15.38;7.32;;;;;;;19.18;60.95;101470.66;4973884;28;20104;-75
2022/05/22 07:10:05;;;;;;;17.60;6.75;;;;;;;19.53;59.40;101462.66;4983011;28;20074;-75
2022/05/22 07:12:55;;;;;;;13.48;7.00;;;;;;;20.03;58.92;101463.97;4980530;28;20033;-76
2022/05/22 07:15:39;;;;;;;13.73;7.53;;;;;;;20.53;57.62;101458.25;4980220;28;20093;-76
2022/05/22 07:18:21;;;;;;;20.37;6.83;;;;;;;20.74;57.48;101464.31;4984621;28;20125;-76
2022/05/22 07:20:56;;;;;;;14.25;5.75;;;;;;;21.11;53.87;101456.66;4979764;28;20537;-76
2022/05/22 07:23:40;;;;;;;11.18;5.72;;;;;;;21.53;53.86;101470.25;4981632;28;20053;-76
2022/05/22 07:26:26;;;;;;;12.60;5.72;;;;;;;21.55;54.32;101466.38;4977466;28;20026;-76
2022/05/22 07:29:23;;;;;;;9.60;5.50;;;;;;;21.67;52.99;101458.59;4953699;28;20512;-76
2022/05/22 07:32:08;;;;;;;11.23;6.32;;;;;;;21.90;52.63;101459.84;4978580;28;20053;-76
2022/05/22 07:34:51;;;;;;;11.73;5.55;;;;;;;22.06;50.93;101455.88;4966917;28;20042;-76
2022/05/22 07:37:40;;;;;;;12.55;5.05;;;;;;;22.10;50.74;101457.06;4980212;28;20125;-78
2022/05/22 07:40:24;;;;;;;15.10;5.25;;;;;;;22.07;48.48;101455.63;4981600;28;20092;-76
2022/05/22 07:43:08;;;;;;;12.90;5.47;;;;;;;22.16;47.16;101453.53;4979349;28;20075;-77
2022/05/22 07:45:56;;;;;;;12.65;5.30;;;;;;;;;;4972466;28;20052;-77
2022/05/22 07:48:30;;;;;;;10.55;4.93;;;;;;;22.48;47.71;101456.09;4979190;28;20463;-76
2022/05/22 07:51:12;;;;;;;15.70;6.78;;;;;;;22.48;48.31;101456.09;4973542;28;20392;-77
2022/05/22 07:54:07;;;;;;;13.00;5.93;;;;;;;22.73;46.85;101450.72;4920096;28;20108;-76
2022/05/22 07:56:45;;;;;;;16.70;6.65;;;;;;;23.05;46.51;101442.66;4978593;28;20038;-77
2022/05/22 07:59:22;;;;;;;13.73;5.57;;;;;;;23.43;46.00;101442.34;4977101;28;20580;-77
2022/05/22 08:02:12;;;;;;;11.73;4.90;;;;;;;23.77;45.77;101436.50;4974532;28;20042;-77
2022/05/22 08:04:43;;;;;;;10.68;4.07;;;;;;;23.50;45.73;101442.22;4962669;28;20495;-77
2022/05/22 08:07:14;;;;;;;11.60;4.20;;;;;;;23.48;42.11;101439.81;4973938;28;20732;-77
2022/05/22 08:09:53;;;;;;;14.52;4.20;;;;;;;23.43;42.55;101439.69;4984970;28;20035;-77
2022/05/22 08:12:19;;;;;;;13.80;5.22;;;;;;;23.44;43.83;101421.97;4976359;28;20045;-77
2022/05/22 08:14:44;;;;;;;12.73;4.40;;;;;;;24.07;42.70;101424.03;4962533;28;20407;-77
2022/05/22 08:17:11;;;;;;;11.55;5.10;;;;;;;24.37;41.07;101422.25;4976364;28;20388;-77
2022/05/22 08:19:37;;;;;;;12.52;5.10;;;;;;;24.25;42.28;101409.03;4983459;28;20058;-77
2022/05/22 08:22:19;;;;;;;12.35;5.20;;;;;;;24.29;42.28;101403.03;4981626;28;20508;-78
2022/05/22 08:25:08;;;;;;;16.88;6.50;;;;;;;24.24;40.96;101399.47;4968960;28;20325;-77
2022/05/22 08:27:38;;;;;;;11.82;4.55;;;;;;;24.45;42.71;101404.16;4975733;28;20038;-77
2022/05/22 08:30:04;;;;;;;12.95;5.50;;;;;;;24.24;41.58;101408.22;4980466;28;20037;-78
2022/05/22 08:32:38;;;;;;;11.63;5.18;;;;;;;24.28;41.54;101406.72;4983403;28;20030;-77
2022/05/22 08:35:05;;;;;;;17.05;5.13;;;;;;;24.17;41.29;101401.44;4974966;28;20038;-77
2022/05/22 08:37:32;;;;;;;14.05;5.45;;;;;;;23.94;43.44;101402.25;4975781;28;20420;-77
2022/05/22 08:39:57;;;;;;;11.70;5.53;;;;;;;24.06;41.07;101395.91;4978766;28;20030;-77
2022/05/22 08:42:45;;;;;;;11.88;5.32;;;;;;;24.04;41.93;101386.59;4979571;28;20511;-77
2022/05/22 08:45:18;;;;;;;8.93;4.70;;;;;;;24.14;40.83;101383.34;4972613;28;20038;-77
2022/05/22 08:48:07;;;;;;;13.15;4.88;;;;;;;24.13;40.87;101376.44;4972603;28;20037;-78
2022/05/22 08:50:35;;;;;;;13.45;4.32;;;;;;;24.17;40.33;101377.59;4973389;28;20471;-78
2022/05/22 08:53:36;;;;;;;16.77;5.13;;;;;;;24.53;39.67;101371.22;4971950;28;20038;-77
2022/05/22 08:59:09;;;;;;;15.02;5.60;;;;;;;24.01;42.42;101371.16;4972499;28;20140;-77
2022/05/22 09:01:38;;;;;;;11.80;5.07;;;;;;;24.44;43.07;101361.97;4975892;28;20042;-77
2022/05/22 09:04:03;;;;;;;12.65;4.95;;;;;;;24.52;39.92;101358.97;4970547;28;20046;-78
2022/05/22 09:06:44;;;;;;;15.30;5.80;;;;;;;24.53;40.46;101357.16;4978198;28;20030;-77
2022/05/22 09:09:09;;;;;;;12.77;4.53;;;;;;;24.47;39.93;101351.72;4970879;28;20449;-77
2022/05/22 09:11:52;;;;;;;26.23;5.07;;;;;;;24.41;40.18;101350.03;4969617;28;20022;-78
2022/05/22 09:14:24;;;;;;;11.68;5.00;;;;;;;24.05;41.29;101356.41;4977608;28;20133;-77
2022/05/22 09:17:08;;;;;;;15.43;4.78;;;;;;;23.95;39.78;101354.34;4978255;28;20508;-78
2022/05/22 09:19:38;;;;;;;13.40;4.57;;;;;;;24.15;39.96;101353.16;4978820;28;20031;-77
2022/05/22 09:22:04;;;;;;;11.82;3.67;;;;;;;24.42;40.27;101353.47;4978918;28;20348;-77
2022/05/22 09:24:54;;;;;;;10.02;4.70;;;;;;;24.04;40.79;101339.72;4975034;28;20451;-77
2022/05/22 09:27:34;;;;;;;11.75;4.15;;;;;;;24.08;41.30;101337.41;4971803;28;20035;-77
2022/05/22 09:30:05;;;;;;;15.38;4.90;;;;;;;24.31;40.36;101327.81;4975450;28;20025;-78
2022/05/22 09:32:51;;;;;;;17.00;4.80;;;;;;;23.80;41.40;101322.25;4980381;28;20031;-77
2022/05/22 09:35:20;;;;;;;14.95;4.47;;;;;;;23.82;40.20;101328.13;4979969;28;20057;-78
2022/05/22 09:38:31;;;;;;;11.82;4.38;;;;;;;24.13;40.68;101326.94;4975233;28;20034;-77
2022/05/22 09:41:26;;;;;;;10.27;3.92;;;;;;;24.14;39.91;101325.09;4958356;28;20368;-78
2022/05/22 09:44:02;;;;;;;10.05;4.35;;;;;;;24.43;39.46;101323.25;4982246;28;20054;-77
2022/05/22 09:46:49;;;;;;;9.93;3.38;;;;;;;24.36;38.69;101318.13;4978686;28;20057;-77
2022/05/22 09:49:27;;;;;;;11.25;5.05;;;;;;;24.56;41.85;101323.00;4977976;28;20129;-77
2022/05/22 09:51:52;;;;;;;12.07;5.35;;;;;;;24.64;41.61;101322.66;4986102;28;20137;-77
2022/05/22 09:54:55;;;;;;;13.15;4.63;;;;;;;24.43;40.90;101324.09;4982633;28;20038;-77
2022/05/22 09:57:58;;;;;;;11.73;4.23;;;;;;;24.64;40.31;101316.53;4980229;28;20031;-75
2022/05/22 10:00:33;;;;;;;16.05;4.70;;;;;;;24.90;39.39;101320.44;4963141;28;20627;-75
2022/05/22 10:03:49;;;;;;;12.27;3.72;;;;;;;24.74;38.33;101314.06;4987215;28;20029;-75
2022/05/22 10:06:38;;;;;;;16.05;4.90;;;;;;;24.41;38.69;101315.56;4951749;28;20126;-78
2022/05/22 10:09:25;;;;;;;14.88;4.30;;;;;;;23.86;40.72;101316.81;4978081;28;20716;-77
2022/05/22 10:12:24;;;;;;;11.93;3.60;;;;;;;23.74;41.23;101316.00;4977211;28;20041;-77
2022/05/22 10:15:09;;;;;;;8.93;3.90;;;;;;;24.21;41.24;101323.91;4980635;28;20042;-78
2022/05/22 10:17:51;;;;;;;10.25;3.80;;;;;;;24.27;42.03;101336.22;4980700;28;20031;-78
2022/05/22 10:20:41;;;;;;;10.25;4.15;;;;;;;24.07;40.85;101326.03;4975612;28;20057;-77
2022/05/22 10:23:10;;;;;;;10.75;4.93;;;;;;;24.29;38.41;101326.19;4978025;28;20419;-77
2022/05/22 10:25:55;;;;;;;10.27;4.07;;;;;;;24.50;40.05;101323.94;4983158;28;20034;-78
2022/05/22 10:28:32;;;;;;;11.38;4.65;;;;;;;24.79;39.18;101321.28;4974535;28;20407;-78
2022/05/22 10:31:10;;;;;;;9.65;3.50;;;;;;;24.86;39.18;101312.19;4972629;28;20030;-78
2022/05/22 10:34:08;;;;;;;7.30;3.35;;;;;;;25.13;37.95;101302.75;4982176;28;20503;-78
2022/05/22 10:36:39;;;;;;;12.93;3.60;;;;;;;25.15;38.70;101303.34;4976343;28;20289;-78
2022/05/22 10:39:06;;;;;;;10.85;4.35;;;;;;;25.19;38.90;101299.16;4973741;28;20030;-77
2022/05/22 10:44:51;;;;;;;11.13;3.60;;;;;;;25.24;36.56;101291.28;4983193;28;20367;-78
2022/05/22 10:47:27;;;;;;;11.07;3.72;;;;;;;25.36;36.29;101284.06;4973070;28;21157;-77
2022/05/22 10:49:54;;;;;;;11.45;4.03;;;;;;;24.93;35.96;101297.94;4972304;28;20038;-78
2022/05/22 10:52:26;;;;;;;12.68;4.50;;;;;;;24.88;37.96;101298.66;4976263;28;20359;-77
2022/05/22 10:54:55;;;;;;;11.68;4.68;;;;;;;25.24;39.55;101286.00;4973596;28;20065;-77
2022/05/22 10:57:23;;;;;;;16.45;4.15;;;;;;;25.60;36.45;101278.56;4975324;28;20105;-77
2022/05/22 10:59:49;;;;;;;8.63;2.88;;;;;;;25.71;36.86;101276.84;4973916;28;20034;-77
2022/05/22 11:02:25;;;;;;;10.48;3.40;;;;;;;25.69;36.59;101269.09;4975654;28;20045;-78
2022/05/22 11:04:54;;;;;;;12.93;3.97;;;;;;;25.16;36.67;101259.84;4977211;28;20083;-77
2022/05/22 11:07:51;;;;;;;14.77;4.55;;;;;;;25.12;36.82;101254.22;4975287;28;20030;-78
2022/05/22 11:10:28;;;;;;;9.65;3.25;;;;;;;25.30;36.01;101253.19;4964818;28;20477;-77
2022/05/22 11:13:04;;;;;;;10.73;3.58;;;;;;;25.21;36.01;101244.81;4990400;28;20030;-78
2022/05/22 11:15:37;;;;;;;13.00;4.15;;;;;;;25.27;34.84;101251.03;4977602;28;20041;-78
2022/05/22 11:18:09;;;;;;;13.05;4.45;;;;;;;25.18;34.61;101244.47;4975920;28;20074;-77
2022/05/22 11:20:38;;;;;;;17.45;4.50;;;;;;;25.24;35.55;101244.34;4975319;28;20034;-78
2022/05/22 11:23:18;;;;;;;14.48;3.35;;;;;;;25.10;36.53;101231.63;4971255;28;20050;-78
2022/05/22 11:25:46;;;;;;;9.30;3.00;;;;;;;25.38;35.94;101228.09;4976038;28;20104;-78
2022/05/22 11:28:40;;;;;;;12.73;3.67;;;;;;;25.30;34.98;101223.19;4975770;28;20081;-78
2022/05/22 11:31:19;;;;;;;12.63;4.20;;;;;;;25.39;36.39;101217.25;4980430;28;20057;-78
2022/05/22 11:34:12;;;;;;;12.25;3.33;;;;;;;25.35;36.17;101228.56;4981558;28;20038;-78
2022/05/22 11:37:02;;;;;;;9.93;3.28;;;;;;;25.35;34.61;101217.97;4981594;28;20215;-78
2022/05/22 11:39:42;;;;;;;12.73;3.38;;;;;;;25.27;34.79;101224.47;4978218;28;20053;-78
2022/05/22 11:42:32;;;;;;;7.03;3.17;;;;;;;25.01;35.05;101213.47;4989778;28;20046;-77
2022/05/22 11:45:00;;;;;;;18.88;5.03;;;;;;;25.09;35.27;101199.00;4993884;28;20041;-78
2022/05/22 11:47:48;;;;;;;8.10;3.25;;;;;;;25.33;35.98;101190.88;4992945;28;20054;-77
2022/05/22 11:50:50;;;;;;;8.43;3.10;;;;;;;25.49;35.04;101187.38;4975700;28;20543;-77
2022/05/22 11:54:01;;;;;;;7.95;3.22;;;;;;;25.71;34.55;101192.69;4978362;28;21097;-77
2022/05/22 11:56:42;;;;;;;5.78;2.65;;;;;;;25.52;35.26;101202.00;4974697;28;20076;-78
2022/05/22 11:59:32;;;;;;;16.42;5.32;;;;;;;25.19;34.98;101188.53;4987366;28;20038;-78
2022/05/22 12:02:16;;;;;;;9.00;3.38;;;;;;;24.83;35.63;101192.53;4962124;28;20034;-78
2022/05/22 12:04:47;;;;;;;12.25;2.95;;;;;;;24.70;35.67;101191.00;4977133;28;20046;-77
2022/05/22 12:07:19;;;;;;;;;;;;;;;25.06;36.34;101187.03;4977764;28;20045;-77
2022/05/22 12:10:10;;;;;;;6.78;2.33;;;;;;;25.62;36.53;101183.56;4973372;28;19920;-78